Time;durP1;ratioP1;P1;durP2;ratioP2;P2;SDS_P1;SDS_P2;PMS_P1;PMS_P2;Temp;Humidity;BMP_temperature;BMP_pressure;BME280_temperature;BME280_humidity;BME280_pressure;Samples;Min_cycle;Max_cycle;Signal;HPM_P1;HPM_P2
2023/06/21 00:02:21;;;;;;;3.20;2.70;;;20.00;99.90;;;;;;5033767;28;20189;-71
2023/06/21 00:04:47;;;;;;;2.53;2.33;;;20.00;99.90;;;;;;5051516;28;20661;-71
2023/06/21 00:07:12;;;;;;;3.60;2.50;;;20.00;99.90;;;;;;5054735;28;20171;-70
2023/06/21 00:09:39;;;;;;;3.50;2.43;;;19.90;99.90;;;;;;5055576;28;20174;-70
2023/06/21 00:12:05;;;;;;;2.67;2.20;;;19.90;99.90;;;;;;5055290;28;20240;-70
2023/06/21 00:14:30;;;;;;;3.20;2.83;;;19.90;99.90;;;;;;5055141;28;20405;-69
2023/06/21 00:16:56;;;;;;;3.20;2.90;;;19.90;99.90;;;;;;5054884;28;20170;-71
2023/06/21 00:19:21;;;;;;;2.73;2.43;;;19.90;99.90;;;;;;5055082;28;20226;-71
2023/06/21 00:21:47;;;;;;;4.10;2.57;;;19.90;99.90;;;;;;5055129;28;20548;-70
2023/06/21 00:24:13;;;;;;;4.30;2.63;;;19.80;99.90;;;;;;5054680;28;20631;-70
2023/06/21 00:26:38;;;;;;;3.03;2.70;;;19.90;99.90;;;;;;5055447;28;20167;-70
2023/06/21 00:29:04;;;;;;;2.87;2.13;;;19.90;99.90;;;;;;5055495;28;20171;-71
2023/06/21 00:31:30;;;;;;;4.30;2.90;;;19.90;99.90;;;;;;5054808;28;20249;-70
2023/06/21 00:33:56;;;;;;;3.53;2.60;;;19.80;99.90;;;;;;5055065;28;20242;-71
2023/06/21 00:36:21;;;;;;;3.23;2.70;;;19.80;99.90;;;;;;5055280;28;20886;-70
2023/06/21 00:38:47;;;;;;;4.03;2.80;;;19.80;99.90;;;;;;5055050;28;20564;-71
2023/06/21 00:41:12;;;;;;;2.50;2.30;;;19.80;99.90;;;;;;5054880;28;20183;-71
2023/06/21 00:43:38;;;;;;;3.60;2.40;;;19.80;99.90;;;;;;5037225;28;20224;-70
2023/06/21 00:46:04;;;;;;;3.63;2.80;;;19.80;99.90;;;;;;5055032;28;20174;-71
2023/06/21 00:48:29;;;;;;;3.67;2.63;;;19.70;99.90;;;;;;5036966;28;20171;-70
2023/06/21 00:50:58;;;;;;;4.07;3.10;;;19.70;99.90;;;;;;5054454;28;20277;-70
2023/06/21 00:53:26;;;;;;;3.30;3.00;;;19.70;99.90;;;;;;5054882;28;20171;-70
2023/06/21 00:55:52;;;;;;;3.63;3.23;;;19.70;99.90;;;;;;5054884;28;20820;-70
2023/06/21 00:58:20;;;;;;;3.97;2.67;;;19.70;99.90;;;;;;5054803;28;20464;-70
2023/06/21 01:00:49;;;;;;;3.43;1.90;;;19.70;99.90;;;;;;5054451;28;20414;-70
2023/06/21 01:03:16;;;;;;;3.40;2.50;;;19.70;99.90;;;;;;5054857;28;20429;-70
2023/06/21 01:05:44;;;;;;;6.53;2.70;;;19.70;99.90;;;;;;5054637;28;20413;-70
2023/06/21 01:08:20;;;;;;;3.57;2.97;;;19.70;99.90;;;;;;5054631;28;20781;-70
2023/06/21 01:10:53;;;;;;;2.77;2.50;;;19.70;99.90;;;;;;5036360;28;20424;-69
2023/06/21 01:13:37;;;;;;;4.00;2.60;;;19.70;99.90;;;;;;5054639;28;20410;-70
2023/06/21 01:16:15;;;;;;;2.70;2.43;;;19.60;99.90;;;;;;5036813;28;20931;-70
2023/06/21 01:18:45;;;;;;;2.40;2.20;;;19.60;99.90;;;;;;5054214;28;20527;-70
2023/06/21 01:21:17;;;;;;;3.10;2.53;;;19.60;99.90;;;;;;5053552;28;20445;-70
2023/06/21 01:23:55;;;;;;;2.60;2.40;;;19.60;99.90;;;;;;5054091;28;20412;-70
2023/06/21 01:26:52;;;;;;;3.13;2.20;;;19.60;99.90;;;;;;5054274;28;20488;-70
2023/06/21 01:29:23;;;;;;;2.77;2.50;;;19.50;99.90;;;;;;5054237;28;20418;-70
2023/06/21 01:31:52;;;;;;;3.40;2.80;;;19.50;99.90;;;;;;5053833;28;20430;-69
2023/06/21 01:34:18;;;;;;;3.20;2.40;;;19.50;99.90;;;;;;5054090;28;20397;-70
2023/06/21 01:36:44;;;;;;;3.30;2.53;;;19.40;99.90;;;;;;5053992;28;20409;-70
2023/06/21 01:39:09;;;;;;;3.70;2.63;;;19.40;99.90;;;;;;5054057;28;20453;-70
2023/06/21 01:41:39;;;;;;;6.77;3.90;;;19.30;99.90;;;;;;5053715;28;20422;-70
2023/06/21 01:44:09;;;;;;;6.13;4.60;;;19.30;99.90;;;;;;5054077;28;20190;-71
2023/06/21 01:46:34;;;;;;;4.70;3.30;;;19.20;99.90;;;;;;5053992;28;20471;-70
2023/06/21 01:49:03;;;;;;;3.33;3.03;;;19.20;99.90;;;;;;5053907;28;20413;-70
2023/06/21 01:51:29;;;;;;;2.83;2.50;;;19.20;99.90;;;;;;5053478;28;20186;-70
2023/06/21 01:53:55;;;;;;;3.33;2.73;;;19.20;99.90;;;;;;5053771;28;20437;-70
2023/06/21 01:56:23;;;;;;;4.63;2.97;;;19.20;99.90;;;;;;5053722;28;20410;-70
2023/06/21 01:58:48;;;;;;;3.20;2.90;;;19.10;99.90;;;;;;5053820;28;20903;-70
2023/06/21 02:01:18;;;;;;;3.47;2.67;;;19.10;99.90;;;;;;5053345;28;20547;-70
2023/06/21 02:03:50;;;;;;;4.10;3.00;;;19.10;99.90;;;;;;5053575;28;20175;-70
2023/06/21 02:06:20;;;;;;;4.63;3.07;;;19.10;99.90;;;;;;5053662;28;20884;-70
2023/06/21 02:08:47;;;;;;;3.00;2.73;;;19.10;99.90;;;;;;5053441;28;20410;-71
2023/06/21 02:11:13;;;;;;;2.63;2.30;;;19.10;99.90;;;;;;5053151;28;20425;-70
2023/06/21 02:13:38;;;;;;;5.93;3.07;;;19.10;99.90;;;;;;5053395;28;20405;-70
2023/06/21 02:16:04;;;;;;;2.70;2.50;;;19.00;99.90;;;;;;5053346;28;20174;-69
2023/06/21 02:18:29;;;;;;;3.63;2.70;;;19.00;99.90;;;;;;5053302;28;20201;-70
2023/06/21 02:20:57;;;;;;;3.40;2.67;;;19.00;99.90;;;;;;5052969;28;20183;-70
2023/06/21 02:23:23;;;;;;;2.73;2.53;;;19.00;99.90;;;;;;5053193;28;20530;-70
2023/06/21 02:25:48;;;;;;;3.50;3.20;;;19.00;99.90;;;;;;5053278;28;20405;-69
2023/06/21 02:28:16;;;;;;;2.97;2.30;;;19.00;99.90;;;;;;5052413;28;20178;-70
2023/06/21 02:30:42;;;;;;;3.10;2.80;;;19.00;99.90;;;;;;5052621;28;20256;-70
2023/06/21 02:33:07;;;;;;;8.30;4.97;;;19.00;99.90;;;;;;5035158;28;20444;-69
2023/06/21 02:35:33;;;;;;;27.23;20.03;;;19.00;99.90;;;;;;5052619;28;20568;-70
2023/06/21 02:37:58;;;;;;;7.30;6.00;;;19.00;99.90;;;;;;5052424;28;20552;-70
2023/06/21 02:40:24;;;;;;;4.53;3.40;;;18.90;99.90;;;;;;5052658;28;20217;-70
2023/06/21 02:42:49;;;;;;;3.90;3.33;;;18.90;99.90;;;;;;5034789;28;20201;-70
2023/06/21 02:45:16;;;;;;;4.00;2.93;;;18.90;99.90;;;;;;5052790;28;20170;-70
2023/06/21 02:47:41;;;;;;;4.00;3.27;;;18.90;99.90;;;;;;5052774;28;20510;-70
2023/06/21 02:50:07;;;;;;;7.53;6.73;;;18.90;99.90;;;;;;5052439;28;20473;-71
2023/06/21 02:52:33;;;;;;;4.10;3.00;;;18.90;99.90;;;;;;5052541;28;20756;-70
2023/06/21 02:55:01;;;;;;;3.63;2.97;;;18.80;99.90;;;;;;5052464;28;20500;-70
2023/06/21 02:57:26;;;;;;;4.30;3.20;;;18.80;99.90;;;;;;5052491;28;20163;-70
2023/06/21 02:59:52;;;;;;;5.47;3.20;;;18.80;99.90;;;;;;5052104;28;21017;-70
2023/06/21 03:02:17;;;;;;;3.57;3.00;;;18.70;99.90;;;;;;5052324;28;20187;-69
2023/06/21 03:04:43;;;;;;;5.37;3.90;;;18.70;99.90;;;;;;5052381;28;20179;-70
2023/06/21 03:07:09;;;;;;;6.37;5.20;;;18.70;99.90;;;;;;5052395;28;20163;-70
2023/06/21 03:09:34;;;;;;;11.43;8.50;;;18.70;99.90;;;;;;5052323;28;20175;-70
2023/06/21 03:12:07;;;;;;;4.97;4.27;;;18.60;99.90;;;;;;5052195;28;20230;-70
2023/06/21 03:14:36;;;;;;;3.23;2.80;;;18.60;99.90;;;;;;5052221;28;20166;-70
2023/06/21 03:17:02;;;;;;;5.67;3.47;;;18.50;99.90;;;;;;5052412;28;20449;-70
2023/06/21 03:19:27;;;;;;;6.27;2.93;;;18.50;99.90;;;;;;5052096;28;20481;-70
2023/06/21 03:21:53;;;;;;;7.83;3.17;;;18.50;99.90;;;;;;5051780;28;20768;-71
2023/06/21 03:24:19;;;;;;;4.77;2.87;;;18.50;99.90;;;;;;5052204;28;20162;-70
2023/06/21 03:26:45;;;;;;;3.93;2.47;;;18.50;99.90;;;;;;5052144;28;20630;-70
2023/06/21 03:29:10;;;;;;;3.73;3.00;;;18.50;99.90;;;;;;5051820;28;20401;-70
2023/06/21 03:31:36;;;;;;;2.67;2.40;;;18.60;99.90;;;;;;5051647;28;20186;-70
2023/06/21 03:34:01;;;;;;;3.80;3.30;;;18.60;99.90;;;;;;5051970;28;20171;-70
2023/06/21 03:36:28;;;;;;;3.67;3.27;;;18.60;99.90;;;;;;5051965;28;20711;-70
2023/06/21 03:38:53;;;;;;;6.00;3.13;;;18.60;99.90;;;;;;5051948;28;20603;-70
2023/06/21 03:41:19;;;;;;;4.37;3.60;;;18.60;99.90;;;;;;5051242;28;20417;-70
2023/06/21 03:43:44;;;;;;;5.47;3.03;;;18.60;99.90;;;;;;5051872;28;20255;-70
2023/06/21 03:46:11;;;;;;;4.70;3.00;;;18.60;99.90;;;;;;5051701;28;20167;-70
2023/06/21 03:48:36;;;;;;;4.50;3.07;;;18.60;99.90;;;;;;5051835;28;20191;-70
2023/06/21 03:51:02;;;;;;;3.87;3.27;;;18.60;99.90;;;;;;5051378;28;20635;-70
2023/06/21 03:53:28;;;;;;;4.30;3.67;;;18.60;99.90;;;;;;5033854;28;20238;-71
2023/06/21 03:55:53;;;;;;;6.77;3.53;;;18.70;99.90;;;;;;5034111;28;20179;-70
2023/06/21 03:58:19;;;;;;;3.97;2.70;;;18.70;99.90;;;;;;5051717;28;20272;-70
2023/06/21 04:00:44;;;;;;;6.20;3.47;;;18.60;99.90;;;;;;5051368;28;20166;-69
2023/06/21 04:03:10;;;;;;;5.37;3.20;;;18.70;99.90;;;;;;5051684;28;20183;-68
2023/06/21 04:05:35;;;;;;;10.77;3.73;;;18.70;99.90;;;;;;5033888;28;20167;-71
2023/06/21 04:08:01;;;;;;;3.90;3.17;;;18.70;99.90;;;;;;5051681;28;20578;-68
2023/06/21 04:10:26;;;;;;;3.83;3.20;;;18.70;99.90;;;;;;5051902;28;20163;-70
2023/06/21 04:12:52;;;;;;;4.33;3.57;;;18.80;99.90;;;;;;5034054;28;20819;-70
2023/06/21 04:15:19;;;;;;;4.87;3.40;;;18.80;99.90;;;;;;5051580;28;20171;-70
2023/06/21 04:17:44;;;;;;;3.93;3.30;;;18.90;99.90;;;;;;5052444;28;20166;-69
2023/06/21 04:20:12;;;;;;;3.40;2.87;;;18.90;99.90;;;;;;5052002;28;20455;-69
2023/06/21 04:22:41;;;;;;;4.97;3.53;;;19.00;99.90;;;;;;5034232;28;20195;-69
2023/06/21 04:25:08;;;;;;;3.93;3.47;;;19.10;99.90;;;;;;5052288;28;20965;-69
2023/06/21 04:27:34;;;;;;;5.50;3.10;;;19.10;99.90;;;;;;5052545;28;20489;-69
2023/06/21 04:29:59;;;;;;;4.53;2.93;;;19.10;99.90;;;;;;5052218;28;20492;-69
2023/06/21 04:32:31;;;;;;;4.33;3.90;;;19.10;99.90;;;;;;5052400;28;20191;-68
2023/06/21 04:34:57;;;;;;;5.37;4.37;;;19.20;99.90;;;;;;5034335;28;20175;-68
2023/06/21 04:37:24;;;;;;;5.30;3.40;;;19.20;99.90;;;;;;5052203;28;20420;-68
2023/06/21 04:39:49;;;;;;;4.87;3.07;;;19.30;99.90;;;;;;5051912;28;20452;-69
2023/06/21 04:42:15;;;;;;;4.07;3.43;;;19.40;99.90;;;;;;5052107;28;20482;-68
2023/06/21 04:44:40;;;;;;;3.47;3.17;;;19.50;99.90;;;;;;5051332;28;20511;-70
2023/06/21 04:47:06;;;;;;;4.50;3.53;;;19.60;99.90;;;;;;5051224;28;20163;-69
2023/06/21 04:49:31;;;;;;;4.37;3.87;;;19.60;99.90;;;;;;5051218;28;20170;-70
2023/06/21 04:51:58;;;;;;;4.47;3.60;;;19.80;99.90;;;;;;5051781;28;20198;-70
2023/06/21 04:54:29;;;;;;;4.97;3.23;;;19.90;99.90;;;;;;5037069;28;20217;-68
2023/06/21 04:56:54;;;;;;;9.17;5.57;;;20.00;99.90;;;;;;5054893;28;20412;-69
2023/06/21 04:59:20;;;;;;;4.37;3.97;;;20.10;99.90;;;;;;5054782;28;20820;-68
2023/06/21 05:01:46;;;;;;;5.10;3.93;;;20.20;99.90;;;;;;5054514;28;20241;-69
2023/06/21 05:04:11;;;;;;;5.17;4.50;;;20.40;99.90;;;;;;5054623;28;20182;-69
2023/06/21 05:06:37;;;;;;;4.00;3.70;;;20.50;99.90;;;;;;5054801;28;20178;-69
2023/06/21 05:09:04;;;;;;;6.03;5.17;;;20.60;99.90;;;;;;5037296;28;20175;-70
2023/06/21 05:11:30;;;;;;;4.80;4.10;;;20.70;99.90;;;;;;5054630;28;20516;-69
2023/06/21 05:13:55;;;;;;;5.20;4.70;;;20.80;99.90;;;;;;5055136;28;20497;-69
2023/06/21 05:16:21;;;;;;;4.27;3.87;;;20.90;99.90;;;;;;5055119;28;20182;-70
2023/06/21 05:18:46;;;;;;;4.93;4.53;;;21.10;99.90;;;;;;5054582;28;20197;-69
2023/06/21 05:21:12;;;;;;;6.53;5.17;;;21.20;99.90;;;;;;5054372;28;20214;-70
2023/06/21 05:23:37;;;;;;;5.97;5.07;;;21.30;99.90;;;;;;5054331;28;20245;-70
2023/06/21 05:26:03;;;;;;;5.50;4.53;;;21.50;99.90;;;;;;5054356;28;20271;-70
2023/06/21 05:28:28;;;;;;;5.83;4.97;;;21.70;99.90;;;;;;5054381;28;20590;-71
2023/06/21 05:30:54;;;;;;;5.60;5.07;;;21.90;99.90;;;;;;5053986;28;22508;-71
2023/06/21 05:33:19;;;;;;;5.40;4.90;;;22.00;99.90;;;;;;5054190;28;20178;-71
2023/06/21 05:35:45;;;;;;;6.37;5.23;;;22.10;99.90;;;;;;5054142;28;20221;-70
2023/06/21 05:38:10;;;;;;;4.60;3.97;;;22.10;99.90;;;;;;5054111;28;20167;-71
2023/06/21 05:40:36;;;;;;;5.47;4.93;;;22.20;99.90;;;;;;5053853;28;20202;-71
2023/06/21 05:43:02;;;;;;;7.03;5.23;;;22.20;99.90;;;;;;5054040;28;20751;-69
2023/06/21 05:45:28;;;;;;;4.93;4.53;;;22.30;99.90;;;;;;5053967;28;20159;-70
2023/06/21 05:47:55;;;;;;;4.70;3.70;;;22.60;99.90;;;;;;5053952;28;20175;-70
2023/06/21 05:50:20;;;;;;;5.03;4.53;;;22.80;99.90;;;;;;5035996;28;20421;-70
2023/06/21 05:52:46;;;;;;;6.33;4.60;;;23.00;99.90;;;;;;5054059;28;20425;-70
2023/06/21 05:55:11;;;;;;;5.00;4.47;;;23.20;99.90;;;;;;5054091;28;20182;-69
2023/06/21 05:57:37;;;;;;;4.50;4.10;;;23.40;99.90;;;;;;5054010;28;20175;-70
2023/06/21 06:00:05;;;;;;;4.53;4.00;;;23.50;99.90;;;;;;5053505;28;20195;-70
2023/06/21 06:02:31;;;;;;;5.20;4.50;;;23.70;99.90;;;;;;5053459;28;20213;-71
2023/06/21 06:04:56;;;;;;;7.20;5.83;;;24.00;99.90;;;;;;5053688;28;20492;-70
2023/06/21 06:07:23;;;;;;;5.57;4.93;;;24.30;99.90;;;;;;5053840;28;20241;-70
2023/06/21 06:09:50;;;;;;;5.77;4.30;;;24.70;99.90;;;;;;5053559;28;20163;-72
2023/06/21 06:12:17;;;;;;;5.20;4.70;;;25.30;99.90;;;;;;5053695;28;21004;-71
2023/06/21 06:14:43;;;;;;;5.80;4.10;;;26.00;99.90;;;;;;5053493;28;20978;-72
2023/06/21 06:17:08;;;;;;;7.03;4.37;;;26.40;99.90;;;;;;5053343;28;20496;-71
2023/06/21 06:19:34;;;;;;;5.70;5.20;;;26.90;99.90;;;;;;5052984;28;20191;-72
2023/06/21 06:21:59;;;;;;;6.20;4.50;;;27.60;99.90;;;;;;5052773;28;20218;-69
2023/06/21 06:24:25;;;;;;;4.27;3.93;;;28.30;99.90;;;;;;5053306;28;20198;-69
2023/06/21 06:26:51;;;;;;;4.67;4.27;;;29.00;99.90;;;;;;5053177;28;20660;-71
2023/06/21 06:29:16;;;;;;;10.00;5.50;;;30.10;99.90;;;;;;5053187;28;20247;-69
2023/06/21 06:31:42;;;;;;;6.10;4.27;;;30.80;99.90;;;;;;5052766;28;20183;-70
2023/06/21 06:34:07;;;;;;;5.07;4.63;;;31.50;99.90;;;;;;5053189;28;20224;-72
2023/06/21 06:36:33;;;;;;;4.30;3.90;;;32.20;99.50;;;;;;5053461;28;20257;-73
2023/06/21 06:38:58;;;;;;;5.20;4.27;;;33.00;96.40;;;;;;5052987;28;20202;-72
2023/06/21 06:41:24;;;;;;;6.43;5.40;;;33.60;90.10;;;;;;5052503;28;20263;-73
2023/06/21 06:43:49;;;;;;;5.13;4.30;;;34.00;83.60;;;;;;5052948;28;20174;-71
2023/06/21 06:46:15;;;;;;;5.80;4.13;;;33.90;77.40;;;;;;5052833;28;20167;-69
2023/06/21 06:48:40;;;;;;;5.63;4.60;;;33.80;76.60;;;;;;5052735;28;20171;-67
2023/06/21 06:51:06;;;;;;;5.27;4.27;;;33.90;75.20;;;;;;5053428;28;20194;-69
2023/06/21 06:53:32;;;;;;;5.13;4.63;;;33.70;73.90;;;;;;5053446;28;20277;-65
2023/06/21 06:55:59;;;;;;;5.03;4.57;;;33.10;71.90;;;;;;5053318;28;20162;-68
2023/06/21 06:58:25;;;;;;;6.07;4.90;;;33.30;75.40;;;;;;5053592;28;20203;-68
2023/06/21 07:00:50;;;;;;;4.20;3.77;;;33.80;74.70;;;;;;5052381;28;20483;-68
2023/06/21 07:03:16;;;;;;;8.13;4.43;;;34.40;72.60;;;;;;5053602;28;20178;-68
2023/06/21 07:05:46;;;;;;;4.87;3.87;;;34.70;70.00;;;;;;5054182;28;20184;-68
2023/06/21 07:08:12;;;;;;;4.20;3.90;;;34.70;68.10;;;;;;5052333;28;20649;-67
2023/06/21 07:10:38;;;;;;;5.43;4.10;;;34.90;67.90;;;;;;5052000;28;20455;-67
2023/06/21 07:13:04;;;;;;;4.50;4.10;;;35.20;64.50;;;;;;5052363;28;20685;-68
2023/06/21 07:15:29;;;;;;;4.83;4.30;;;35.90;64.00;;;;;;5051867;28;20397;-68
2023/06/21 07:17:55;;;;;;;8.30;7.50;;;36.70;61.00;;;;;;5052332;28;20177;-67
2023/06/21 07:20:21;;;;;;;4.43;4.03;;;37.20;57.10;;;;;;5051815;28;20198;-67
2023/06/21 07:22:47;;;;;;;6.50;4.10;;;37.40;56.20;;;;;;5052124;28;20183;-67
2023/06/21 07:25:12;;;;;;;5.00;4.60;;;37.60;54.10;;;;;;5053864;28;20398;-69
2023/06/21 07:27:38;;;;;;;4.27;3.90;;;38.50;54.60;;;;;;5054115;28;20163;-66
2023/06/21 07:30:05;;;;;;;5.53;5.03;;;39.20;50.30;;;;;;5053444;28;20562;-69
2023/06/21 07:32:30;;;;;;;4.70;4.30;;;39.40;49.20;;;;;;5053457;28;20197;-69
2023/06/21 07:34:58;;;;;;;6.33;5.53;;;40.10;47.40;;;;;;5052293;28;20413;-69
2023/06/21 07:37:23;;;;;;;4.93;4.43;;;40.40;45.40;;;;;;5053538;28;20170;-69
2023/06/21 07:39:50;;;;;;;4.33;4.03;;;41.20;44.70;;;;;;5053241;28;20455;-69
2023/06/21 07:42:16;;;;;;;4.90;4.50;;;41.20;43.10;;;;;;5053606;28;20486;-66
2023/06/21 07:44:42;;;;;;;4.40;4.10;;;42.20;43.70;;;;;;5051955;28;20178;-65
2023/06/21 07:47:07;;;;;;;5.10;4.70;;;42.20;41.20;;;;;;5051872;28;20411;-68
2023/06/21 07:49:33;;;;;;;6.93;5.10;;;41.10;39.80;;;;;;5051846;28;20175;-66
2023/06/21 07:51:58;;;;;;;4.13;3.83;;;40.00;40.50;;;;;;5051550;28;20195;-65
2023/06/21 07:54:24;;;;;;;5.73;5.23;;;39.10;42.40;;;;;;5051782;28;20167;-64
2023/06/21 07:56:49;;;;;;;6.60;5.93;;;38.50;43.40;;;;;;5052068;28;20565;-66
2023/06/21 07:59:15;;;;;;;3.93;3.63;;;37.60;44.40;;;;;;5051578;28;20222;-67
2023/06/21 08:01:40;;;;;;;4.50;4.10;;;37.20;45.90;;;;;;5051354;28;20282;-64
2023/06/21 08:04:06;;;;;;;4.90;3.40;;;38.10;46.70;;;;;;5051566;28;20183;-68
2023/06/21 08:06:31;;;;;;;4.23;3.93;;;39.20;45.30;;;;;;5034111;28;20541;-67
2023/06/21 08:08:57;;;;;;;6.57;5.20;;;40.10;44.20;;;;;;5051788;28;20248;-67
2023/06/21 08:11:22;;;;;;;4.77;4.37;;;40.90;42.70;;;;;;5051273;28;20199;-67
2023/06/21 08:13:48;;;;;;;4.70;4.30;;;41.30;40.20;;;;;;5051524;28;20190;-66
2023/06/21 08:16:13;;;;;;;4.50;4.20;;;42.20;40.10;;;;;;5052308;28;20181;-68
2023/06/21 08:18:39;;;;;;;5.17;4.67;;;43.50;39.30;;;;;;5052090;28;20852;-69
2023/06/21 08:21:05;;;;;;;4.90;4.50;;;44.70;38.70;;;;;;5051626;28;20191;-71
2023/06/21 08:23:31;;;;;;;4.50;4.20;;;45.60;36.60;;;;;;5051675;28;20217;-67
2023/06/21 08:25:57;;;;;;;4.90;4.47;;;45.90;35.70;;;;;;5052019;28;20413;-71
2023/06/21 08:28:22;;;;;;;4.70;4.40;;;46.10;36.20;;;;;;5055459;28;20171;-70
2023/06/21 08:30:48;;;;;;;4.70;4.40;;;46.20;35.20;;;;;;5055699;28;20217;-71
2023/06/21 08:33:13;;;;;;;5.03;4.63;;;45.30;34.80;;;;;;5037489;28;20183;-67
2023/06/21 08:35:39;;;;;;;6.53;5.93;;;44.10;35.40;;;;;;5055328;28;20183;-68
2023/06/21 08:38:04;;;;;;;5.87;4.47;;;43.00;36.50;;;;;;5055806;28;20163;-68
2023/06/21 08:40:34;;;;;;;4.63;4.23;;;41.60;37.10;;;;;;5055882;28;20625;-67
2023/06/21 08:43:01;;;;;;;5.43;4.93;;;40.10;38.10;;;;;;5055652;28;20187;-68
2023/06/21 08:45:26;;;;;;;4.90;4.40;;;38.60;39.50;;;;;;5055041;28;20786;-69
2023/06/21 08:47:52;;;;;;;4.63;4.23;;;37.40;41.10;;;;;;5055071;28;20402;-68
2023/06/21 08:50:20;;;;;;;5.30;4.80;;;36.70;43.90;;;;;;5055248;28;20177;-67
2023/06/21 08:52:47;;;;;;;4.70;4.13;;;37.70;45.40;;;;;;5055394;28;20191;-67
2023/06/21 08:55:14;;;;;;;5.63;4.87;;;39.40;44.30;;;;;;5054966;28;20416;-68
2023/06/21 08:57:53;;;;;;;5.13;4.47;;;41.00;42.40;;;;;;5054871;28;20405;-69
2023/06/21 09:00:26;;;;;;;4.30;4.00;;;42.10;40.40;;;;;;5054751;28;20992;-67
2023/06/21 09:03:08;;;;;;;5.27;4.87;;;43.60;39.40;;;;;;5055027;28;20418;-71
2023/06/21 09:06:03;;;;;;;4.50;4.20;;;45.30;36.40;;;;;;5037391;28;20379;-68
2023/06/21 09:08:31;;;;;;;4.40;4.10;;;47.10;35.40;;;;;;5054709;28;20384;-69
2023/06/21 09:10:57;;;;;;;5.03;4.63;;;48.70;33.90;;;;;;5054388;28;20417;-68
2023/06/21 09:13:24;;;;;;;4.27;3.97;;;48.30;30.20;;;;;;5054651;28;20397;-68
2023/06/21 09:15:51;;;;;;;4.70;4.30;;;46.90;31.10;;;;;;5054544;28;20372;-67
2023/06/21 10:09:09;;;;;;;5.07;4.70;;;48.90;31.50;;;;;;5069928;28;20541;-68
2023/06/21 10:11:34;;;;;;;4.80;4.50;;;47.40;28.40;;;;;;5069695;28;20393;-67
2023/06/21 10:14:00;;;;;;;5.87;5.40;;;45.30;29.60;;;;;;5069230;28;20450;-69
2023/06/21 10:16:26;;;;;;;9.37;8.63;;;43.30;31.10;;;;;;5069000;28;20197;-72
2023/06/21 10:18:56;;;;;;;5.97;5.47;;;42.20;33.90;;;;;;5069725;28;20653;-67
2023/06/21 10:21:22;;;;;;;6.47;5.30;;;42.70;34.70;;;;;;5069187;28;20806;-69
2023/06/21 10:23:50;;;;;;;7.40;6.80;;;42.80;33.70;;;;;;5069077;28;20404;-71
2023/06/21 10:26:17;;;;;;;10.97;10.07;;;42.20;32.90;;;;;;5068784;28;20395;-67
2023/06/21 10:28:45;;;;;;;6.57;5.97;;;42.00;33.70;;;;;;5068935;28;20476;-67
2023/06/21 10:31:12;;;;;;;4.87;4.47;;;41.20;34.30;;;;;;5068985;28;20856;-68
2023/06/21 10:33:38;;;;;;;4.40;4.00;;;41.50;36.10;;;;;;5068912;28;20387;-67
2023/06/21 10:36:09;;;;;;;5.77;5.27;;;43.10;36.40;;;;;;5068559;28;20399;-68
2023/06/21 10:38:38;;;;;;;5.60;5.10;;;44.60;34.00;;;;;;5068875;28;20744;-67
2023/06/21 10:41:05;;;;;;;5.60;4.93;;;44.60;33.00;;;;;;5068702;28;20444;-68
2023/06/21 10:43:32;;;;;;;5.50;5.00;;;44.40;32.50;;;;;;5068866;28;20380;-70
2023/06/21 10:45:59;;;;;;;5.67;5.10;;;43.70;32.70;;;;;;5067066;28;20432;-68
2023/06/21 10:48:26;;;;;;;5.37;4.80;;;43.00;33.70;;;;;;5067321;28;20541;-68
2023/06/21 10:50:52;;;;;;;5.60;4.47;;;43.70;34.80;;;;;;5068586;28;20396;-67
2023/06/21 10:53:19;;;;;;;4.77;4.40;;;45.10;33.70;;;;;;5068490;28;20371;-68
2023/06/21 10:55:46;;;;;;;5.80;5.40;;;45.70;32.00;;;;;;5068092;28;20413;-68
2023/06/21 10:58:13;;;;;;;5.13;4.73;;;45.00;31.40;;;;;;5068405;28;20405;-68
2023/06/21 11:00:42;;;;;;;5.43;4.90;;;43.60;31.70;;;;;;5068370;28;20379;-67
2023/06/21 11:03:12;;;;;;;5.90;5.40;;;42.30;32.80;;;;;;5068248;28;20484;-68
2023/06/21 11:05:38;;;;;;;6.37;5.87;;;40.90;34.50;;;;;;5067939;28;20423;-67
2023/06/21 11:08:05;;;;;;;5.70;5.30;;;40.30;35.60;;;;;;5067917;28;20518;-68
2023/06/21 11:10:42;;;;;;;6.57;6.00;;;40.30;37.00;;;;;;5068134;28;20169;-67
2023/06/21 11:13:09;;;;;;;6.40;5.80;;;42.20;36.60;;;;;;5068000;28;20379;-70
2023/06/21 11:15:39;;;;;;;5.47;5.07;;;43.90;34.90;;;;;;5067473;28;20399;-68
2023/06/21 11:18:06;;;;;;;6.20;5.37;;;45.40;33.20;;;;;;5068036;28;20376;-68
2023/06/21 11:20:46;;;;;;;5.83;5.43;;;47.30;32.30;;;;;;5054322;28;20415;-68
2023/06/21 11:23:25;;;;;;;5.07;4.57;;;49.30;30.70;;;;;;5054634;28;20400;-69
2023/06/21 11:25:52;;;;;;;5.43;5.00;;;50.80;29.70;;;;;;5054484;28;20421;-69
2023/06/21 11:28:22;;;;;;;5.80;4.87;;;51.60;28.30;;;;;;5054489;28;20452;-71
2023/06/21 11:31:07;;;;;;;5.90;5.50;;;52.20;27.70;;;;;;5054511;28;20431;-68
2023/06/21 11:33:59;;;;;;;5.43;4.97;;;52.60;27.10;;;;;;5054524;28;20416;-69
2023/06/21 11:36:32;;;;;;;5.60;5.10;;;51.80;26.30;;;;;;5054106;28;20409;-68
2023/06/21 11:38:59;;;;;;;5.13;4.73;;;50.10;26.60;;;;;;5053236;28;20416;-68
2023/06/21 11:41:43;;;;;;;5.00;4.60;;;48.70;27.00;;;;;;5054367;28;20438;-69
2023/06/21 11:44:11;;;;;;;4.83;4.50;;;47.90;28.10;;;;;;5054300;28;20397;-68
2023/06/21 11:46:39;;;;;;;4.57;4.20;;;47.20;28.20;;;;;;5053945;28;20771;-68
2023/06/21 11:49:04;;;;;;;4.70;4.40;;;45.90;28.50;;;;;;5054257;28;20383;-71
2023/06/21 11:51:31;;;;;;;4.20;3.90;;;44.80;29.40;;;;;;5054207;28;20376;-68
2023/06/21 11:53:58;;;;;;;4.50;4.10;;;45.20;30.40;;;;;;5053859;28;20619;-68
2023/06/21 11:56:29;;;;;;;4.93;4.53;;;45.40;29.80;;;;;;5053760;28;20755;-68
2023/06/21 11:58:55;;;;;;;5.73;4.33;;;46.00;29.70;;;;;;5054118;28;20368;-69
2023/06/21 12:01:20;;;;;;;5.03;4.63;;;47.10;29.40;;;;;;5054008;28;20405;-68
2023/06/21 12:03:47;;;;;;;5.10;4.60;;;48.30;29.00;;;;;;5053828;28;20206;-68
2023/06/21 12:16:18;;;;;;;4.00;3.70;;;51.20;26.00;;;;;;5052882;28;20458;-78
2023/06/21 12:18:44;;;;;;;4.87;4.47;;;51.30;26.30;;;;;;5053180;28;20401;-69
2023/06/21 12:21:09;;;;;;;4.13;3.93;;;51.60;26.00;;;;;;5053619;28;20260;-70
2023/06/21 12:23:35;;;;;;;4.37;4.07;;;52.40;26.30;;;;;;5053628;28;20297;-69
2023/06/21 12:26:05;;;;;;;4.70;4.33;;;53.10;25.70;;;;;;5053241;28;20194;-69
2023/06/21 12:28:32;;;;;;;4.53;4.23;;;53.30;25.10;;;;;;5052217;28;20195;-70
2023/06/21 12:31:02;;;;;;;5.17;4.87;;;53.80;25.10;;;;;;5052420;28;20398;-70
2023/06/21 12:33:30;;;;;;;5.00;4.70;;;54.50;25.00;;;;;;5053437;28;20770;-71
2023/06/21 12:36:16;;;;;;;5.70;5.30;;;54.30;23.90;;;;;;5053025;28;20424;-71
2023/06/21 12:39:03;;;;;;;5.37;4.90;;;54.30;23.60;;;;;;5053331;28;20409;-70
2023/06/21 12:41:31;;;;;;;3.73;3.53;;;54.50;24.10;;;;;;5053226;28;20401;-70
2023/06/21 12:44:00;;;;;;;4.90;4.60;;;54.50;23.80;;;;;;5053149;28;20487;-70
2023/06/21 12:46:26;;;;;;;4.43;4.13;;;54.70;23.70;;;;;;5052736;28;20425;-72
2023/06/21 12:48:54;;;;;;;4.43;4.13;;;55.00;23.60;;;;;;5053036;28;20477;-71
2023/06/21 12:51:23;;;;;;;4.53;4.23;;;55.40;23.40;;;;;;5053024;28;20900;-72
2023/06/21 12:54:03;;;;;;;4.43;4.23;;;55.30;23.50;;;;;;5051646;28;20789;-70
2023/06/21 12:56:30;;;;;;;5.37;5.07;;;55.40;23.30;;;;;;5052627;28;20421;-70
2023/06/21 12:58:56;;;;;;;8.07;4.60;;;54.90;23.00;;;;;;5052965;28;20467;-71
2023/06/21 13:01:22;;;;;;;5.07;4.67;;;54.40;23.30;;;;;;5052865;28;20409;-71
2023/06/21 13:03:48;;;;;;;4.57;4.17;;;53.70;23.20;;;;;;5052790;28;20416;-72
2023/06/21 13:06:15;;;;;;;5.10;4.70;;;52.70;23.70;;;;;;5052337;28;20421;-71
2023/06/21 13:08:41;;;;;;;4.80;4.30;;;51.20;23.50;;;;;;5052617;28;20203;-71
2023/06/21 13:11:08;;;;;;;3.90;3.70;;;49.50;24.40;;;;;;5052708;28;20981;-72
2023/06/21 13:13:34;;;;;;;4.60;4.30;;;47.90;25.20;;;;;;5052635;28;20182;-70
2023/06/21 13:15:59;;;;;;;4.47;4.07;;;46.20;25.90;;;;;;5052465;28;20909;-69
2023/06/21 13:18:29;;;;;;;5.33;4.20;;;45.00;27.30;;;;;;5052555;28;20450;-69
2023/06/21 13:20:58;;;;;;;4.13;3.77;;;44.50;28.50;;;;;;5052507;28;20174;-71
2023/06/21 13:23:27;;;;;;;4.57;4.17;;;44.30;28.70;;;;;;5052462;28;20403;-70
2023/06/21 13:25:54;;;;;;;4.30;3.90;;;44.20;29.10;;;;;;5052113;28;20392;-69
2023/06/21 13:28:21;;;;;;;4.40;4.00;;;43.80;29.00;;;;;;5052385;28;20423;-70
2023/06/21 13:30:49;;;;;;;4.30;4.00;;;43.40;29.10;;;;;;5052396;28;20463;-70
2023/06/21 13:33:14;;;;;;;4.37;4.07;;;42.90;29.00;;;;;;5052279;28;20776;-69
2023/06/21 13:35:41;;;;;;;4.30;3.90;;;42.50;29.30;;;;;;5050405;28;20430;-69
2023/06/21 13:38:07;;;;;;;4.10;3.80;;;42.10;29.70;;;;;;5052193;28;20754;-69
2023/06/21 13:40:33;;;;;;;4.60;4.20;;;41.60;30.00;;;;;;5052239;28;20409;-68
2023/06/21 13:42:58;;;;;;;4.13;3.83;;;41.00;30.10;;;;;;5052015;28;20198;-70
2023/06/21 13:45:24;;;;;;;4.10;3.70;;;40.50;30.60;;;;;;5051851;28;20163;-69
2023/06/21 13:47:49;;;;;;;4.53;4.20;;;39.80;30.60;;;;;;5052194;28;20195;-70